sensor_id;sensor_type;location;lat;lon;timestamp;temperature;humidity
4312;DHT22;2169;49.086;9.284;2023-08-06T00:00:40;18.00;67.00
4312;DHT22;2169;49.086;9.284;2023-08-06T00:03:07;18.00;67.20
4312;DHT22;2169;49.086;9.284;2023-08-06T00:05:35;18.10;67.40
4312;DHT22;2169;49.086;9.284;2023-08-06T00:08:02;18.10;67.50
4312;DHT22;2169;49.086;9.284;2023-08-06T00:10:28;18.10;67.50
4312;DHT22;2169;49.086;9.284;2023-08-06T00:12:55;18.00;67.50
4312;DHT22;2169;49.086;9.284;2023-08-06T00:15:22;18.00;67.60
4312;DHT22;2169;49.086;9.284;2023-08-06T00:17:49;18.00;67.70
4312;DHT22;2169;49.086;9.284;2023-08-06T00:20:15;18.00;67.70
4312;DHT22;2169;49.086;9.284;2023-08-06T00:22:43;18.00;67.80
4312;DHT22;2169;49.086;9.284;2023-08-06T00:25:10;18.00;67.90
4312;DHT22;2169;49.086;9.284;2023-08-06T00:27:37;18.00;67.90
4312;DHT22;2169;49.086;9.284;2023-08-06T00:30:04;18.00;67.90
4312;DHT22;2169;49.086;9.284;2023-08-06T00:32:31;18.00;68.00
4312;DHT22;2169;49.086;9.284;2023-08-06T00:34:58;18.00;67.90
4312;DHT22;2169;49.086;9.284;2023-08-06T00:37:24;17.90;67.90
4312;DHT22;2169;49.086;9.284;2023-08-06T00:39:52;17.90;67.90
4312;DHT22;2169;49.086;9.284;2023-08-06T00:42:19;17.90;67.90
4312;DHT22;2169;49.086;9.284;2023-08-06T00:44:48;17.90;68.00
4312;DHT22;2169;49.086;9.284;2023-08-06T00:47:15;17.80;68.00
4312;DHT22;2169;49.086;9.284;2023-08-06T00:49:42;17.90;68.10
4312;DHT22;2169;49.086;9.284;2023-08-06T00:52:09;17.80;68.80
4312;DHT22;2169;49.086;9.284;2023-08-06T00:54:36;17.80;68.10
4312;DHT22;2169;49.086;9.284;2023-08-06T00:57:05;17.80;68.10
4312;DHT22;2169;49.086;9.284;2023-08-06T00:59:33;17.80;68.10
4312;DHT22;2169;49.086;9.284;2023-08-06T01:02:00;17.70;68.10
4312;DHT22;2169;49.086;9.284;2023-08-06T01:04:27;17.70;68.10
4312;DHT22;2169;49.086;9.284;2023-08-06T01:07:03;17.70;68.20
4312;DHT22;2169;49.086;9.284;2023-08-06T01:09:42;17.70;68.20
4312;DHT22;2169;49.086;9.284;2023-08-06T01:12:20;17.60;68.20
4312;DHT22;2169;49.086;9.284;2023-08-06T01:14:57;17.60;68.30
4312;DHT22;2169;49.086;9.284;2023-08-06T01:17:24;17.60;68.40
4312;DHT22;2169;49.086;9.284;2023-08-06T01:19:52;17.60;68.50
4312;DHT22;2169;49.086;9.284;2023-08-06T01:22:20;17.60;68.70
4312;DHT22;2169;49.086;9.284;2023-08-06T01:24:49;17.60;68.80
4312;DHT22;2169;49.086;9.284;2023-08-06T01:27:21;17.80;70.00
4312;DHT22;2169;49.086;9.284;2023-08-06T01:29:56;17.70;69.60
4312;DHT22;2169;49.086;9.284;2023-08-06T01:32:24;17.60;69.40
4312;DHT22;2169;49.086;9.284;2023-08-06T01:34:52;17.60;69.40
4312;DHT22;2169;49.086;9.284;2023-08-06T01:37:22;17.50;69.30
4312;DHT22;2169;49.086;9.284;2023-08-06T01:39:49;17.50;69.30
4312;DHT22;2169;49.086;9.284;2023-08-06T01:42:16;17.40;69.10
4312;DHT22;2169;49.086;9.284;2023-08-06T01:44:43;17.40;69.10
4312;DHT22;2169;49.086;9.284;2023-08-06T01:47:09;17.40;69.20
4312;DHT22;2169;49.086;9.284;2023-08-06T01:49:36;17.40;69.20
4312;DHT22;2169;49.086;9.284;2023-08-06T01:52:03;17.40;69.30
4312;DHT22;2169;49.086;9.284;2023-08-06T01:54:31;17.40;69.30
4312;DHT22;2169;49.086;9.284;2023-08-06T01:56:58;17.30;69.30
4312;DHT22;2169;49.086;9.284;2023-08-06T01:59:25;17.30;69.30
4312;DHT22;2169;49.086;9.284;2023-08-06T02:01:52;17.30;69.40
4312;DHT22;2169;49.086;9.284;2023-08-06T02:04:18;17.30;69.40
4312;DHT22;2169;49.086;9.284;2023-08-06T02:06:45;17.30;69.50
4312;DHT22;2169;49.086;9.284;2023-08-06T02:09:12;17.30;69.60
4312;DHT22;2169;49.086;9.284;2023-08-06T02:11:40;17.30;69.60
4312;DHT22;2169;49.086;9.284;2023-08-06T02:14:07;17.30;69.70
4312;DHT22;2169;49.086;9.284;2023-08-06T02:16:34;17.30;69.70
4312;DHT22;2169;49.086;9.284;2023-08-06T02:19:00;17.30;69.80
4312;DHT22;2169;49.086;9.284;2023-08-06T02:21:27;17.30;69.80
4312;DHT22;2169;49.086;9.284;2023-08-06T02:23:54;17.30;69.90
4312;DHT22;2169;49.086;9.284;2023-08-06T02:26:21;17.20;69.90
4312;DHT22;2169;49.086;9.284;2023-08-06T02:28:49;17.20;69.80
4312;DHT22;2169;49.086;9.284;2023-08-06T02:31:15;17.20;69.90
4312;DHT22;2169;49.086;9.284;2023-08-06T02:33:42;17.20;69.90
4312;DHT22;2169;49.086;9.284;2023-08-06T02:36:09;17.20;70.00
4312;DHT22;2169;49.086;9.284;2023-08-06T02:38:35;17.20;70.00
4312;DHT22;2169;49.086;9.284;2023-08-06T02:41:02;17.20;70.00
4312;DHT22;2169;49.086;9.284;2023-08-06T02:43:29;17.20;70.10
4312;DHT22;2169;49.086;9.284;2023-08-06T02:45:58;17.20;70.10
4312;DHT22;2169;49.086;9.284;2023-08-06T02:48:25;17.20;70.00
4312;DHT22;2169;49.086;9.284;2023-08-06T02:50:52;17.20;70.00
4312;DHT22;2169;49.086;9.284;2023-08-06T02:53:19;17.20;70.10
4312;DHT22;2169;49.086;9.284;2023-08-06T02:55:46;17.20;70.10
4312;DHT22;2169;49.086;9.284;2023-08-06T02:58:14;17.20;70.20
4312;DHT22;2169;49.086;9.284;2023-08-06T03:00:41;17.20;70.20
4312;DHT22;2169;49.086;9.284;2023-08-06T03:03:09;17.20;70.20
4312;DHT22;2169;49.086;9.284;2023-08-06T03:05:36;17.20;70.20
4312;DHT22;2169;49.086;9.284;2023-08-06T03:08:03;17.20;70.10
4312;DHT22;2169;49.086;9.284;2023-08-06T03:10:29;17.20;70.10
4312;DHT22;2169;49.086;9.284;2023-08-06T03:12:55;17.20;70.10
4312;DHT22;2169;49.086;9.284;2023-08-06T03:15:22;17.20;70.10
4312;DHT22;2169;49.086;9.284;2023-08-06T03:17:49;17.10;70.00
4312;DHT22;2169;49.086;9.284;2023-08-06T03:20:17;17.10;70.00
4312;DHT22;2169;49.086;9.284;2023-08-06T03:22:44;17.10;70.10
4312;DHT22;2169;49.086;9.284;2023-08-06T03:25:10;17.10;70.10
4312;DHT22;2169;49.086;9.284;2023-08-06T03:27:37;17.10;70.10
4312;DHT22;2169;49.086;9.284;2023-08-06T03:30:05;17.10;70.10
4312;DHT22;2169;49.086;9.284;2023-08-06T03:32:32;17.10;70.10
4312;DHT22;2169;49.086;9.284;2023-08-06T03:34:58;17.00;69.90
4312;DHT22;2169;49.086;9.284;2023-08-06T03:37:26;17.00;70.00
4312;DHT22;2169;49.086;9.284;2023-08-06T03:39:53;17.00;69.90
4312;DHT22;2169;49.086;9.284;2023-08-06T03:42:20;17.00;69.90
4312;DHT22;2169;49.086;9.284;2023-08-06T03:44:46;17.00;69.90
4312;DHT22;2169;49.086;9.284;2023-08-06T03:47:14;17.00;69.90
4312;DHT22;2169;49.086;9.284;2023-08-06T03:49:40;17.00;69.90
4312;DHT22;2169;49.086;9.284;2023-08-06T03:52:08;17.00;69.90
4312;DHT22;2169;49.086;9.284;2023-08-06T03:54:36;17.00;69.90
4312;DHT22;2169;49.086;9.284;2023-08-06T03:57:04;17.00;70.00
4312;DHT22;2169;49.086;9.284;2023-08-06T03:59:31;16.90;69.90
4312;DHT22;2169;49.086;9.284;2023-08-06T04:01:58;17.00;70.00
4312;DHT22;2169;49.086;9.284;2023-08-06T04:04:25;17.00;70.00
4312;DHT22;2169;49.086;9.284;2023-08-06T04:06:51;17.00;70.00
4312;DHT22;2169;49.086;9.284;2023-08-06T04:09:18;17.00;70.00
4312;DHT22;2169;49.086;9.284;2023-08-06T04:11:46;17.00;69.90
4312;DHT22;2169;49.086;9.284;2023-08-06T04:14:13;17.00;69.90
4312;DHT22;2169;49.086;9.284;2023-08-06T04:16:40;17.00;69.90
4312;DHT22;2169;49.086;9.284;2023-08-06T04:19:06;17.00;69.80
4312;DHT22;2169;49.086;9.284;2023-08-06T04:21:33;16.90;69.70
4312;DHT22;2169;49.086;9.284;2023-08-06T04:24:00;16.90;69.70
4312;DHT22;2169;49.086;9.284;2023-08-06T04:26:27;16.90;69.70
4312;DHT22;2169;49.086;9.284;2023-08-06T04:28:55;16.90;69.70
4312;DHT22;2169;49.086;9.284;2023-08-06T04:31:21;16.90;69.70
4312;DHT22;2169;49.086;9.284;2023-08-06T04:33:48;16.80;69.70
4312;DHT22;2169;49.086;9.284;2023-08-06T04:36:15;16.80;69.60
4312;DHT22;2169;49.086;9.284;2023-08-06T04:38:42;16.70;69.30
4312;DHT22;2169;49.086;9.284;2023-08-06T04:41:10;16.70;69.30
4312;DHT22;2169;49.086;9.284;2023-08-06T04:43:37;16.70;69.30
4312;DHT22;2169;49.086;9.284;2023-08-06T04:46:05;16.60;69.10
4312;DHT22;2169;49.086;9.284;2023-08-06T04:48:32;16.60;69.10
4312;DHT22;2169;49.086;9.284;2023-08-06T04:50:58;16.50;69.00
4312;DHT22;2169;49.086;9.284;2023-08-06T04:53:25;16.50;69.70
4312;DHT22;2169;49.086;9.284;2023-08-06T04:55:52;16.50;69.00
4312;DHT22;2169;49.086;9.284;2023-08-06T04:58:19;16.50;69.10
4312;DHT22;2169;49.086;9.284;2023-08-06T05:00:45;16.50;69.10
4312;DHT22;2169;49.086;9.284;2023-08-06T05:03:13;16.50;69.00
4312;DHT22;2169;49.086;9.284;2023-08-06T05:05:40;16.50;69.00
4312;DHT22;2169;49.086;9.284;2023-08-06T05:08:07;16.40;68.90
4312;DHT22;2169;49.086;9.284;2023-08-06T05:10:34;16.40;68.90
4312;DHT22;2169;49.086;9.284;2023-08-06T05:13:00;16.40;68.90
4312;DHT22;2169;49.086;9.284;2023-08-06T05:15:27;16.40;68.90
4312;DHT22;2169;49.086;9.284;2023-08-06T05:17:54;16.40;68.90
4312;DHT22;2169;49.086;9.284;2023-08-06T05:20:22;16.40;68.80
4312;DHT22;2169;49.086;9.284;2023-08-06T05:22:49;16.40;68.80
4312;DHT22;2169;49.086;9.284;2023-08-06T05:25:16;16.40;68.80
4312;DHT22;2169;49.086;9.284;2023-08-06T05:27:43;16.40;68.90
4312;DHT22;2169;49.086;9.284;2023-08-06T05:30:10;16.40;68.90
4312;DHT22;2169;49.086;9.284;2023-08-06T05:32:37;16.40;68.90
4312;DHT22;2169;49.086;9.284;2023-08-06T05:35:05;16.30;68.80
4312;DHT22;2169;49.086;9.284;2023-08-06T05:37:33;16.30;68.90
4312;DHT22;2169;49.086;9.284;2023-08-06T05:40:00;16.30;68.90
4312;DHT22;2169;49.086;9.284;2023-08-06T05:42:27;16.30;68.90
4312;DHT22;2169;49.086;9.284;2023-08-06T05:44:54;16.30;68.90
4312;DHT22;2169;49.086;9.284;2023-08-06T05:47:20;16.30;68.90
4312;DHT22;2169;49.086;9.284;2023-08-06T05:49:47;16.30;68.90
4312;DHT22;2169;49.086;9.284;2023-08-06T05:52:14;16.30;69.00
4312;DHT22;2169;49.086;9.284;2023-08-06T05:54:41;16.30;69.10
4312;DHT22;2169;49.086;9.284;2023-08-06T05:57:08;16.30;69.10
4312;DHT22;2169;49.086;9.284;2023-08-06T05:59:34;16.30;69.20
4312;DHT22;2169;49.086;9.284;2023-08-06T06:02:01;16.30;69.30
4312;DHT22;2169;49.086;9.284;2023-08-06T06:04:28;16.30;69.40
4312;DHT22;2169;49.086;9.284;2023-08-06T06:06:55;16.30;69.40
4312;DHT22;2169;49.086;9.284;2023-08-06T06:09:21;16.30;69.40
4312;DHT22;2169;49.086;9.284;2023-08-06T06:11:50;16.30;69.40
4312;DHT22;2169;49.086;9.284;2023-08-06T06:14:16;16.40;69.50
4312;DHT22;2169;49.086;9.284;2023-08-06T06:16:43;16.40;69.50
4312;DHT22;2169;49.086;9.284;2023-08-06T06:19:10;16.40;69.50
4312;DHT22;2169;49.086;9.284;2023-08-06T06:21:37;16.40;69.40
4312;DHT22;2169;49.086;9.284;2023-08-06T06:24:04;16.40;69.40
4312;DHT22;2169;49.086;9.284;2023-08-06T06:26:31;16.40;69.50
4312;DHT22;2169;49.086;9.284;2023-08-06T06:28:59;16.40;69.50
4312;DHT22;2169;49.086;9.284;2023-08-06T06:31:26;16.40;70.20
4312;DHT22;2169;49.086;9.284;2023-08-06T06:33:52;16.40;69.50
4312;DHT22;2169;49.086;9.284;2023-08-06T06:36:19;16.40;69.50
4312;DHT22;2169;49.086;9.284;2023-08-06T06:38:46;16.40;69.50
4312;DHT22;2169;49.086;9.284;2023-08-06T06:41:13;16.50;69.70
4312;DHT22;2169;49.086;9.284;2023-08-06T06:43:40;16.50;69.70
4312;DHT22;2169;49.086;9.284;2023-08-06T06:46:08;16.50;69.80
4312;DHT22;2169;49.086;9.284;2023-08-06T06:48:35;16.50;69.90
4312;DHT22;2169;49.086;9.284;2023-08-06T06:51:02;16.50;69.90
4312;DHT22;2169;49.086;9.284;2023-08-06T06:53:29;16.50;70.00
4312;DHT22;2169;49.086;9.284;2023-08-06T06:55:56;16.50;70.00
4312;DHT22;2169;49.086;9.284;2023-08-06T06:58:27;16.60;70.20
4312;DHT22;2169;49.086;9.284;2023-08-06T07:00:54;16.50;70.30
4312;DHT22;2169;49.086;9.284;2023-08-06T07:03:22;16.60;70.50
4312;DHT22;2169;49.086;9.284;2023-08-06T07:05:49;16.60;70.70
4312;DHT22;2169;49.086;9.284;2023-08-06T07:08:16;16.60;70.70
4312;DHT22;2169;49.086;9.284;2023-08-06T07:10:43;16.60;70.80
4312;DHT22;2169;49.086;9.284;2023-08-06T07:13:10;16.60;70.80
4312;DHT22;2169;49.086;9.284;2023-08-06T07:15:37;16.50;70.80
4312;DHT22;2169;49.086;9.284;2023-08-06T07:18:03;16.50;70.90
4312;DHT22;2169;49.086;9.284;2023-08-06T07:20:31;16.50;70.90
4312;DHT22;2169;49.086;9.284;2023-08-06T07:23:00;16.50;70.90
4312;DHT22;2169;49.086;9.284;2023-08-06T07:25:27;16.60;70.90
4312;DHT22;2169;49.086;9.284;2023-08-06T07:27:54;16.50;70.80
4312;DHT22;2169;49.086;9.284;2023-08-06T07:30:22;16.50;70.80
4312;DHT22;2169;49.086;9.284;2023-08-06T07:32:48;16.50;70.80
4312;DHT22;2169;49.086;9.284;2023-08-06T07:35:15;16.50;70.70
4312;DHT22;2169;49.086;9.284;2023-08-06T07:37:43;16.60;70.70
4312;DHT22;2169;49.086;9.284;2023-08-06T07:40:11;16.60;70.70
4312;DHT22;2169;49.086;9.284;2023-08-06T07:42:37;16.60;70.50
4312;DHT22;2169;49.086;9.284;2023-08-06T07:45:05;16.50;70.40
4312;DHT22;2169;49.086;9.284;2023-08-06T07:47:32;16.50;70.30
4312;DHT22;2169;49.086;9.284;2023-08-06T07:49:59;16.50;70.20
4312;DHT22;2169;49.086;9.284;2023-08-06T07:52:26;16.50;70.20
4312;DHT22;2169;49.086;9.284;2023-08-06T07:54:54;16.60;70.20
4312;DHT22;2169;49.086;9.284;2023-08-06T07:57:20;16.60;70.10
4312;DHT22;2169;49.086;9.284;2023-08-06T07:59:47;16.60;70.00
4312;DHT22;2169;49.086;9.284;2023-08-06T08:02:14;16.60;69.90
4312;DHT22;2169;49.086;9.284;2023-08-06T08:04:40;16.60;69.80
4312;DHT22;2169;49.086;9.284;2023-08-06T08:07:09;16.60;69.70
4312;DHT22;2169;49.086;9.284;2023-08-06T08:09:35;16.60;69.70
4312;DHT22;2169;49.086;9.284;2023-08-06T08:12:04;16.60;69.80
4312;DHT22;2169;49.086;9.284;2023-08-06T08:14:31;16.60;70.00
4312;DHT22;2169;49.086;9.284;2023-08-06T08:17:01;16.60;70.20
4312;DHT22;2169;49.086;9.284;2023-08-06T08:19:27;16.60;70.20
4312;DHT22;2169;49.086;9.284;2023-08-06T08:21:54;16.60;70.20
4312;DHT22;2169;49.086;9.284;2023-08-06T08:24:21;16.60;70.20
4312;DHT22;2169;49.086;9.284;2023-08-06T08:26:49;16.60;70.30
4312;DHT22;2169;49.086;9.284;2023-08-06T08:29:17;16.60;70.50
4312;DHT22;2169;49.086;9.284;2023-08-06T08:31:44;16.60;70.70
4312;DHT22;2169;49.086;9.284;2023-08-06T08:34:10;16.50;70.70
4312;DHT22;2169;49.086;9.284;2023-08-06T08:36:37;16.50;70.80
4312;DHT22;2169;49.086;9.284;2023-08-06T08:39:04;16.60;71.00
4312;DHT22;2169;49.086;9.284;2023-08-06T08:41:31;16.60;71.10
4312;DHT22;2169;49.086;9.284;2023-08-06T08:43:59;16.60;71.20
4312;DHT22;2169;49.086;9.284;2023-08-06T08:46:29;16.60;71.20
4312;DHT22;2169;49.086;9.284;2023-08-06T08:48:59;16.60;71.20
4312;DHT22;2169;49.086;9.284;2023-08-06T08:51:27;16.70;71.40
4312;DHT22;2169;49.086;9.284;2023-08-06T08:53:55;16.70;71.30
4312;DHT22;2169;49.086;9.284;2023-08-06T08:56:23;16.70;71.30
4312;DHT22;2169;49.086;9.284;2023-08-06T08:58:50;16.70;71.20
4312;DHT22;2169;49.086;9.284;2023-08-06T09:01:19;16.80;71.20
4312;DHT22;2169;49.086;9.284;2023-08-06T09:03:48;16.80;71.20
4312;DHT22;2169;49.086;9.284;2023-08-06T09:06:17;16.80;71.20
4312;DHT22;2169;49.086;9.284;2023-08-06T09:08:50;16.80;71.10
4312;DHT22;2169;49.086;9.284;2023-08-06T09:11:19;16.90;71.20
4312;DHT22;2169;49.086;9.284;2023-08-06T09:13:47;16.90;71.10
4312;DHT22;2169;49.086;9.284;2023-08-06T09:16:14;16.90;71.10
4312;DHT22;2169;49.086;9.284;2023-08-06T09:18:40;17.00;71.20
4312;DHT22;2169;49.086;9.284;2023-08-06T09:21:13;17.00;71.10
4312;DHT22;2169;49.086;9.284;2023-08-06T09:23:40;17.00;71.00
4312;DHT22;2169;49.086;9.284;2023-08-06T09:26:07;17.00;71.00
4312;DHT22;2169;49.086;9.284;2023-08-06T09:28:38;17.00;71.00
4312;DHT22;2169;49.086;9.284;2023-08-06T09:31:05;17.00;71.00
4312;DHT22;2169;49.086;9.284;2023-08-06T09:33:31;17.00;71.10
4312;DHT22;2169;49.086;9.284;2023-08-06T09:36:08;17.00;71.20
4312;DHT22;2169;49.086;9.284;2023-08-06T09:38:37;17.00;71.40
4312;DHT22;2169;49.086;9.284;2023-08-06T09:41:04;17.00;71.50
4312;DHT22;2169;49.086;9.284;2023-08-06T09:43:39;17.00;71.50
4312;DHT22;2169;49.086;9.284;2023-08-06T09:46:11;17.10;71.60
4312;DHT22;2169;49.086;9.284;2023-08-06T09:48:38;17.10;71.50
4312;DHT22;2169;49.086;9.284;2023-08-06T09:51:09;17.10;71.50
4312;DHT22;2169;49.086;9.284;2023-08-06T09:53:37;17.10;71.50
4312;DHT22;2169;49.086;9.284;2023-08-06T09:56:05;17.10;71.40
4312;DHT22;2169;49.086;9.284;2023-08-06T09:58:32;17.20;71.30
4312;DHT22;2169;49.086;9.284;2023-08-06T10:01:00;17.20;71.20
4312;DHT22;2169;49.086;9.284;2023-08-06T10:03:29;17.20;71.10
4312;DHT22;2169;49.086;9.284;2023-08-06T10:05:57;17.20;71.10
4312;DHT22;2169;49.086;9.284;2023-08-06T10:08:25;17.20;71.10
4312;DHT22;2169;49.086;9.284;2023-08-06T10:10:52;17.20;71.00
4312;DHT22;2169;49.086;9.284;2023-08-06T10:13:21;17.20;71.00
4312;DHT22;2169;49.086;9.284;2023-08-06T10:15:48;17.20;71.50
4312;DHT22;2169;49.086;9.284;2023-08-06T10:18:17;17.20;70.70
4312;DHT22;2169;49.086;9.284;2023-08-06T10:20:46;17.20;70.70
4312;DHT22;2169;49.086;9.284;2023-08-06T10:23:13;17.30;70.70
4312;DHT22;2169;49.086;9.284;2023-08-06T10:25:42;17.30;70.60
4312;DHT22;2169;49.086;9.284;2023-08-06T10:28:09;17.30;70.50
4312;DHT22;2169;49.086;9.284;2023-08-06T10:30:43;17.30;70.50
4312;DHT22;2169;49.086;9.284;2023-08-06T10:33:11;17.30;70.40
4312;DHT22;2169;49.086;9.284;2023-08-06T10:35:40;17.30;70.40
4312;DHT22;2169;49.086;9.284;2023-08-06T10:38:10;17.30;70.00
4312;DHT22;2169;49.086;9.284;2023-08-06T10:40:37;17.30;69.80
4312;DHT22;2169;49.086;9.284;2023-08-06T10:43:07;17.30;69.70
4312;DHT22;2169;49.086;9.284;2023-08-06T10:45:36;17.20;69.70
4312;DHT22;2169;49.086;9.284;2023-08-06T10:48:04;17.20;69.90
4312;DHT22;2169;49.086;9.284;2023-08-06T10:50:31;17.20;70.10
4312;DHT22;2169;49.086;9.284;2023-08-06T10:53:04;17.10;70.20
4312;DHT22;2169;49.086;9.284;2023-08-06T10:55:31;17.10;70.30
4312;DHT22;2169;49.086;9.284;2023-08-06T10:57:58;17.10;70.40
4312;DHT22;2169;49.086;9.284;2023-08-06T11:00:26;17.10;70.50
4312;DHT22;2169;49.086;9.284;2023-08-06T11:02:53;17.10;70.50
4312;DHT22;2169;49.086;9.284;2023-08-06T11:05:20;17.00;70.40
4312;DHT22;2169;49.086;9.284;2023-08-06T11:07:47;17.00;70.30
4312;DHT22;2169;49.086;9.284;2023-08-06T11:10:14;17.00;70.20
4312;DHT22;2169;49.086;9.284;2023-08-06T11:12:41;17.00;70.00
4312;DHT22;2169;49.086;9.284;2023-08-06T11:15:08;17.00;69.90
4312;DHT22;2169;49.086;9.284;2023-08-06T11:17:40;17.00;69.70
4312;DHT22;2169;49.086;9.284;2023-08-06T11:20:08;17.00;69.70
4312;DHT22;2169;49.086;9.284;2023-08-06T11:22:36;17.00;69.50
4312;DHT22;2169;49.086;9.284;2023-08-06T11:25:05;17.00;69.60
4312;DHT22;2169;49.086;9.284;2023-08-06T11:27:32;17.00;69.60
4312;DHT22;2169;49.086;9.284;2023-08-06T11:29:59;17.00;69.70
4312;DHT22;2169;49.086;9.284;2023-08-06T11:32:25;17.00;69.60
4312;DHT22;2169;49.086;9.284;2023-08-06T11:34:55;16.90;69.30
4312;DHT22;2169;49.086;9.284;2023-08-06T11:37:22;16.90;69.40
4312;DHT22;2169;49.086;9.284;2023-08-06T11:39:51;16.90;69.50
4312;DHT22;2169;49.086;9.284;2023-08-06T11:42:18;16.90;69.40
4312;DHT22;2169;49.086;9.284;2023-08-06T11:44:45;16.90;69.30
4312;DHT22;2169;49.086;9.284;2023-08-06T11:47:16;16.90;69.30
4312;DHT22;2169;49.086;9.284;2023-08-06T11:49:45;16.90;69.30
4312;DHT22;2169;49.086;9.284;2023-08-06T11:52:18;16.80;69.30
4312;DHT22;2169;49.086;9.284;2023-08-06T11:54:47;16.80;69.40
4312;DHT22;2169;49.086;9.284;2023-08-06T11:57:15;16.80;69.50
4312;DHT22;2169;49.086;9.284;2023-08-06T11:59:41;16.80;69.70
4312;DHT22;2169;49.086;9.284;2023-08-06T12:02:09;16.70;69.80
4312;DHT22;2169;49.086;9.284;2023-08-06T12:05:00;16.70;70.00
4312;DHT22;2169;49.086;9.284;2023-08-06T12:07:32;16.70;70.10
4312;DHT22;2169;49.086;9.284;2023-08-06T12:09:59;16.70;70.30
4312;DHT22;2169;49.086;9.284;2023-08-06T12:12:26;16.60;70.20
4312;DHT22;2169;49.086;9.284;2023-08-06T12:14:54;16.60;70.30
4312;DHT22;2169;49.086;9.284;2023-08-06T12:17:21;16.50;70.20
4312;DHT22;2169;49.086;9.284;2023-08-06T12:19:48;16.50;70.30
4312;DHT22;2169;49.086;9.284;2023-08-06T12:22:15;16.50;70.50
4312;DHT22;2169;49.086;9.284;2023-08-06T12:24:44;16.50;70.60
4312;DHT22;2169;49.086;9.284;2023-08-06T12:27:11;16.40;70.50
4312;DHT22;2169;49.086;9.284;2023-08-06T12:29:41;16.40;70.50
4312;DHT22;2169;49.086;9.284;2023-08-06T12:32:08;16.40;70.60
4312;DHT22;2169;49.086;9.284;2023-08-06T12:34:34;16.40;70.70
4312;DHT22;2169;49.086;9.284;2023-08-06T12:37:02;16.30;70.70
4312;DHT22;2169;49.086;9.284;2023-08-06T12:39:29;16.30;70.80
4312;DHT22;2169;49.086;9.284;2023-08-06T12:41:58;16.30;70.90
4312;DHT22;2169;49.086;9.284;2023-08-06T12:44:25;16.30;70.90
4312;DHT22;2169;49.086;9.284;2023-08-06T12:46:52;16.30;71.00
4312;DHT22;2169;49.086;9.284;2023-08-06T12:49:19;16.30;70.90
4312;DHT22;2169;49.086;9.284;2023-08-06T12:51:47;16.20;70.90
4312;DHT22;2169;49.086;9.284;2023-08-06T12:54:16;16.20;70.90
4312;DHT22;2169;49.086;9.284;2023-08-06T12:56:42;16.20;71.00
4312;DHT22;2169;49.086;9.284;2023-08-06T12:59:10;16.20;71.00
4312;DHT22;2169;49.086;9.284;2023-08-06T13:01:38;16.20;71.10
4312;DHT22;2169;49.086;9.284;2023-08-06T13:04:05;16.20;71.20
4312;DHT22;2169;49.086;9.284;2023-08-06T13:06:31;16.20;71.20
4312;DHT22;2169;49.086;9.284;2023-08-06T13:09:01;16.10;71.20
4312;DHT22;2169;49.086;9.284;2023-08-06T13:11:28;16.10;71.30
4312;DHT22;2169;49.086;9.284;2023-08-06T13:13:56;16.10;71.40
4312;DHT22;2169;49.086;9.284;2023-08-06T13:16:24;16.10;71.50
4312;DHT22;2169;49.086;9.284;2023-08-06T13:18:51;16.10;71.50
4312;DHT22;2169;49.086;9.284;2023-08-06T13:21:18;16.10;71.60
4312;DHT22;2169;49.086;9.284;2023-08-06T13:23:44;16.20;71.70
4312;DHT22;2169;49.086;9.284;2023-08-06T13:26:11;16.20;71.80
4312;DHT22;2169;49.086;9.284;2023-08-06T13:28:38;16.20;71.80
4312;DHT22;2169;49.086;9.284;2023-08-06T13:31:04;16.20;71.80
4312;DHT22;2169;49.086;9.284;2023-08-06T13:33:33;16.20;71.90
4312;DHT22;2169;49.086;9.284;2023-08-06T13:35:59;16.20;71.80
4312;DHT22;2169;49.086;9.284;2023-08-06T13:38:26;16.20;71.80
4312;DHT22;2169;49.086;9.284;2023-08-06T13:40:53;16.20;72.00
4312;DHT22;2169;49.086;9.284;2023-08-06T13:43:19;16.20;72.10
4312;DHT22;2169;49.086;9.284;2023-08-06T13:45:46;16.20;72.10
4312;DHT22;2169;49.086;9.284;2023-08-06T13:48:13;16.20;72.10
4312;DHT22;2169;49.086;9.284;2023-08-06T13:50:41;16.30;72.30
4312;DHT22;2169;49.086;9.284;2023-08-06T13:53:08;16.30;72.30
4312;DHT22;2169;49.086;9.284;2023-08-06T13:55:34;16.30;72.20
4312;DHT22;2169;49.086;9.284;2023-08-06T13:58:01;16.30;72.30
4312;DHT22;2169;49.086;9.284;2023-08-06T14:00:28;16.30;72.30
4312;DHT22;2169;49.086;9.284;2023-08-06T14:02:54;16.30;72.40
4312;DHT22;2169;49.086;9.284;2023-08-06T14:05:21;16.30;72.50
4312;DHT22;2169;49.086;9.284;2023-08-06T14:07:49;16.20;72.50
4312;DHT22;2169;49.086;9.284;2023-08-06T14:10:16;16.30;72.70
4312;DHT22;2169;49.086;9.284;2023-08-06T14:12:43;16.30;72.70
4312;DHT22;2169;49.086;9.284;2023-08-06T14:15:11;16.30;72.80
4312;DHT22;2169;49.086;9.284;2023-08-06T14:17:38;16.20;72.80
4312;DHT22;2169;49.086;9.284;2023-08-06T14:20:06;16.30;73.00
4312;DHT22;2169;49.086;9.284;2023-08-06T14:22:37;16.20;73.10
4312;DHT22;2169;49.086;9.284;2023-08-06T14:25:06;16.30;73.20
4312;DHT22;2169;49.086;9.284;2023-08-06T14:27:33;16.30;73.30
4312;DHT22;2169;49.086;9.284;2023-08-06T14:30:00;16.30;73.40
4312;DHT22;2169;49.086;9.284;2023-08-06T14:32:28;16.30;73.50
4312;DHT22;2169;49.086;9.284;2023-08-06T14:34:55;16.30;73.50
4312;DHT22;2169;49.086;9.284;2023-08-06T14:37:23;16.30;73.60
4312;DHT22;2169;49.086;9.284;2023-08-06T14:39:49;16.30;74.30
4312;DHT22;2169;49.086;9.284;2023-08-06T14:42:18;16.30;73.70
4312;DHT22;2169;49.086;9.284;2023-08-06T14:44:44;16.30;73.70
4312;DHT22;2169;49.086;9.284;2023-08-06T14:47:11;16.30;73.80
4312;DHT22;2169;49.086;9.284;2023-08-06T14:49:38;16.40;73.90
4312;DHT22;2169;49.086;9.284;2023-08-06T14:52:06;16.40;73.90
4312;DHT22;2169;49.086;9.284;2023-08-06T14:54:33;16.50;73.90
4312;DHT22;2169;49.086;9.284;2023-08-06T14:56:59;16.50;73.90
4312;DHT22;2169;49.086;9.284;2023-08-06T14:59:27;16.60;73.90
4312;DHT22;2169;49.086;9.284;2023-08-06T15:01:54;16.60;73.80
4312;DHT22;2169;49.086;9.284;2023-08-06T15:04:21;16.60;73.80
4312;DHT22;2169;49.086;9.284;2023-08-06T15:06:48;16.60;73.80
4312;DHT22;2169;49.086;9.284;2023-08-06T15:09:15;16.70;73.80
4312;DHT22;2169;49.086;9.284;2023-08-06T15:11:42;16.70;73.70
4312;DHT22;2169;49.086;9.284;2023-08-06T15:14:09;16.70;73.60
4312;DHT22;2169;49.086;9.284;2023-08-06T15:16:37;16.70;73.50
4312;DHT22;2169;49.086;9.284;2023-08-06T15:19:03;16.70;73.40
4312;DHT22;2169;49.086;9.284;2023-08-06T15:21:30;16.70;73.30
4312;DHT22;2169;49.086;9.284;2023-08-06T15:23:57;16.70;73.30
4312;DHT22;2169;49.086;9.284;2023-08-06T15:26:24;16.70;73.20
4312;DHT22;2169;49.086;9.284;2023-08-06T15:28:50;16.70;73.10
4312;DHT22;2169;49.086;9.284;2023-08-06T15:31:20;16.70;73.10
4312;DHT22;2169;49.086;9.284;2023-08-06T15:33:48;16.70;73.00
4312;DHT22;2169;49.086;9.284;2023-08-06T15:36:15;16.70;72.90
4312;DHT22;2169;49.086;9.284;2023-08-06T15:38:42;16.70;72.90
4312;DHT22;2169;49.086;9.284;2023-08-06T15:41:08;16.70;72.90
4312;DHT22;2169;49.086;9.284;2023-08-06T15:43:35;16.70;72.80
4312;DHT22;2169;49.086;9.284;2023-08-06T15:46:02;16.70;72.90
4312;DHT22;2169;49.086;9.284;2023-08-06T15:48:28;16.70;72.80
4312;DHT22;2169;49.086;9.284;2023-08-06T15:50:57;16.70;72.90
4312;DHT22;2169;49.086;9.284;2023-08-06T15:53:24;16.60;72.70
4312;DHT22;2169;49.086;9.284;2023-08-06T15:55:50;16.60;72.80
4312;DHT22;2169;49.086;9.284;2023-08-06T15:58:17;16.60;72.80
4312;DHT22;2169;49.086;9.284;2023-08-06T16:00:44;16.60;72.80
4312;DHT22;2169;49.086;9.284;2023-08-06T16:03:11;16.60;72.90